createdAt,value
2018-04-13T00:01:00.552Z,10.40
2018-04-13T00:03:28.620Z,10.30
2018-04-13T00:05:56.684Z,10.20
2018-04-13T00:08:24.758Z,10.20
2018-04-13T00:10:52.833Z,10.30
2018-04-13T00:13:20.892Z,10.30
2018-04-13T00:15:48.956Z,10.30
2018-04-13T00:18:17.779Z,10.30
2018-04-13T00:20:45.855Z,10.30
2018-04-13T00:23:13.905Z,10.30
2018-04-13T00:25:41.955Z,10.30
2018-04-13T00:28:11.271Z,10.10
2018-04-13T00:30:39.340Z,10.10
2018-04-13T00:33:07.643Z,10.10
2018-04-13T00:35:35.687Z,10.10
2018-04-13T00:38:03.753Z,10.00
2018-04-13T00:40:31.814Z,9.80
2018-04-13T00:43:00.633Z,9.80
2018-04-13T00:45:28.689Z,9.80
2018-04-13T00:47:56.761Z,9.70
2018-04-13T00:50:24.833Z,9.60
2018-04-13T00:55:53.544Z,9.60
2018-04-13T00:58:21.611Z,9.70
2018-04-13T01:00:49.683Z,9.80
2018-04-13T01:03:17.751Z,9.80
2018-04-13T01:05:45.841Z,9.70
2018-04-13T01:08:13.913Z,9.60
2018-04-13T01:10:41.973Z,9.40
2018-04-13T01:13:10.033Z,9.20
2018-04-13T01:15:38.107Z,9.10
2018-04-13T01:18:06.177Z,9.20
2018-04-13T01:20:34.230Z,9.20
2018-04-13T01:23:02.311Z,9.10
2018-04-13T01:25:30.381Z,9.10
2018-04-13T01:27:58.442Z,9.20
2018-04-13T01:30:26.507Z,9.30
2018-04-13T01:32:55.344Z,9.40
2018-04-13T01:35:23.403Z,9.40
2018-04-13T01:37:51.467Z,9.40
2018-04-13T01:40:19.543Z,9.50
2018-04-13T01:42:47.628Z,9.50
2018-04-13T01:45:15.701Z,9.50
2018-04-13T01:47:43.763Z,9.40
2018-04-13T01:50:11.830Z,9.40
2018-04-13T01:52:39.896Z,9.40
2018-04-13T01:55:07.967Z,9.30
2018-04-13T01:57:36.036Z,9.40
2018-04-13T02:00:04.102Z,9.30
2018-04-13T02:02:32.174Z,9.30
2018-04-13T02:05:01.009Z,9.30
2018-04-13T02:07:29.067Z,9.30
2018-04-13T02:09:57.153Z,9.30
2018-04-13T02:12:25.210Z,9.40
2018-04-13T02:14:53.286Z,9.40
2018-04-13T02:17:21.368Z,9.20
2018-04-13T02:19:49.439Z,9.20
2018-04-13T02:22:17.505Z,9.20
2018-04-13T02:24:45.577Z,9.30
2018-04-13T02:27:13.636Z,9.30
2018-04-13T02:29:42.868Z,9.40
2018-04-13T02:32:11.029Z,9.40
2018-04-13T02:34:39.943Z,9.10
2018-04-13T02:37:09.077Z,9.10
2018-04-13T02:39:37.159Z,9.10
2018-04-13T02:42:05.248Z,9.00
2018-04-13T02:44:33.615Z,9.10
2018-04-13T02:47:01.703Z,9.10
2018-04-13T02:49:30.611Z,9.10
2018-04-13T02:51:59.433Z,9.00
2018-04-13T02:54:27.512Z,9.00
2018-04-13T02:56:55.581Z,8.90
2018-04-13T02:59:23.649Z,8.90
2018-04-13T03:01:52.480Z,8.80
2018-04-13T03:04:26.035Z,8.80
2018-04-13T03:06:54.100Z,8.80
2018-04-13T03:09:22.176Z,8.80
2018-04-13T03:11:50.229Z,8.80
2018-04-13T03:14:18.301Z,8.90
2018-04-13T03:16:46.367Z,8.80
2018-04-13T03:19:15.145Z,8.70
2018-04-13T03:21:43.987Z,8.70
2018-04-13T03:24:15.223Z,8.60
2018-04-13T03:26:43.299Z,8.70
2018-04-13T03:29:11.367Z,8.80
2018-04-13T03:31:39.443Z,8.80
2018-04-13T03:34:07.901Z,8.70
2018-04-13T03:36:35.972Z,8.60
2018-04-13T03:39:04.044Z,8.50
2018-04-13T03:41:32.292Z,8.50
2018-04-13T03:44:00.363Z,8.40
2018-04-13T03:46:28.439Z,8.40
2018-04-13T03:48:56.505Z,8.60
2018-04-13T03:51:25.349Z,8.50
2018-04-13T03:53:53.404Z,8.50
2018-04-13T03:56:21.471Z,8.50
2018-04-13T03:58:49.548Z,8.40
2018-04-13T04:01:17.641Z,8.40
2018-04-13T04:03:45.691Z,8.50
2018-04-13T04:06:13.769Z,8.50
2018-04-13T04:08:41.823Z,8.40
2018-04-13T04:11:10.055Z,8.40
2018-04-13T04:13:38.878Z,8.40
2018-04-13T04:16:07.598Z,8.40
2018-04-13T04:18:35.673Z,8.40
2018-04-13T04:21:15.446Z,8.40
2018-04-13T04:23:56.205Z,8.50
2018-04-13T04:26:49.078Z,8.40
2018-04-13T04:29:17.142Z,8.50
2018-04-13T04:31:45.980Z,8.50
2018-04-13T04:34:16.164Z,8.50
2018-04-13T04:36:44.241Z,8.50
2018-04-13T04:39:12.287Z,8.40
2018-04-13T04:41:41.136Z,8.40
2018-04-13T04:44:09.204Z,8.40
2018-04-13T04:46:37.275Z,8.40
2018-04-13T04:49:05.361Z,8.40
2018-04-13T04:51:33.429Z,8.60
2018-04-13T04:54:01.487Z,8.70
2018-04-13T04:56:29.560Z,8.80
2018-04-13T04:58:57.636Z,8.80
2018-04-13T05:01:25.698Z,8.80
2018-04-13T05:03:53.848Z,8.80
2018-04-13T05:06:21.931Z,8.70
2018-04-13T05:08:50.210Z,8.60
2018-04-13T05:11:18.276Z,8.60
2018-04-13T05:13:47.109Z,8.60
2018-04-13T05:16:15.178Z,8.60
2018-04-13T05:18:43.235Z,8.70
2018-04-13T05:21:11.320Z,8.80
2018-04-13T05:23:39.440Z,8.90
2018-04-13T05:26:08.240Z,9.00
2018-04-13T05:28:36.329Z,9.00
2018-04-13T05:31:04.399Z,9.00
2018-04-13T05:33:32.482Z,8.90
2018-04-13T05:36:00.669Z,9.00
2018-04-13T05:38:28.736Z,8.90
2018-04-13T05:40:56.802Z,9.00
2018-04-13T05:43:24.887Z,9.20
2018-04-13T05:45:52.943Z,9.30
2018-04-13T05:48:21.036Z,9.40
2018-04-13T05:50:49.900Z,9.30
2018-04-13T05:53:18.165Z,9.30
2018-04-13T05:55:46.236Z,9.30
2018-04-13T05:58:14.332Z,9.30
2018-04-13T06:00:42.401Z,9.30
2018-04-13T06:03:10.480Z,9.30
2018-04-13T06:05:38.545Z,9.40
2018-04-13T06:08:06.611Z,9.50
2018-04-13T06:10:34.686Z,9.60
2018-04-13T06:13:02.766Z,9.70
2018-04-13T06:15:30.827Z,9.80
2018-04-13T06:17:58.894Z,9.90
2018-04-13T06:20:26.962Z,9.90
2018-04-13T06:22:55.044Z,10.00
2018-04-13T06:25:23.116Z,10.00
2018-04-13T06:27:52.710Z,10.10
2018-04-13T06:30:20.785Z,10.20
2018-04-13T06:32:48.865Z,10.30
2018-04-13T06:35:16.923Z,10.30
2018-04-13T06:37:44.999Z,10.40
2018-04-13T06:40:13.066Z,10.60
2018-04-13T06:42:41.143Z,10.70
2018-04-13T06:45:09.216Z,10.80
2018-04-13T06:47:37.295Z,11.00
2018-04-13T06:50:06.127Z,11.10
2018-04-13T06:52:34.198Z,11.10
2018-04-13T06:55:02.271Z,11.20
2018-04-13T06:57:30.344Z,11.30
2018-04-13T06:59:58.412Z,11.40
2018-04-13T07:02:26.538Z,11.50
2018-04-13T07:04:54.544Z,11.60
2018-04-13T07:07:22.612Z,11.70
2018-04-13T07:09:50.704Z,11.80
2018-04-13T07:12:18.767Z,11.90
2018-04-13T07:14:46.852Z,12.10
2018-04-13T07:17:14.910Z,12.20
2018-04-13T07:19:43.000Z,12.30
2018-04-13T07:22:11.063Z,12.40
2018-04-13T07:24:39.132Z,12.50
2018-04-13T07:27:07.194Z,12.50
2018-04-13T07:29:35.264Z,12.50
2018-04-13T07:32:03.354Z,12.60
2018-04-13T07:34:31.403Z,12.60
2018-04-13T07:36:59.866Z,12.60
2018-04-13T07:39:27.551Z,12.60
2018-04-13T07:41:55.615Z,12.60
2018-04-13T07:44:23.913Z,12.70
2018-04-13T07:46:51.934Z,12.70
2018-04-13T07:49:19.841Z,12.70
2018-04-13T07:51:47.904Z,12.70
2018-04-13T07:54:15.992Z,12.80
2018-04-13T07:56:44.082Z,12.80
2018-04-13T07:59:12.164Z,12.90
2018-04-13T08:01:40.658Z,12.90
2018-04-13T08:04:08.311Z,13.00
2018-04-13T08:06:36.387Z,13.00
2018-04-13T08:09:04.493Z,13.00
2018-04-13T08:11:32.554Z,12.90
2018-04-13T08:14:00.636Z,12.80
2018-04-13T08:16:28.701Z,12.80
2018-04-13T08:18:56.799Z,12.90
2018-04-13T08:21:24.865Z,12.90
2018-04-13T08:23:52.947Z,12.90
2018-04-13T08:26:21.016Z,13.00
2018-04-13T08:28:49.070Z,13.10
2018-04-13T08:31:17.147Z,13.20
2018-04-13T08:33:45.291Z,13.30
2018-04-13T08:36:14.126Z,13.30
2018-04-13T08:38:42.198Z,13.30
2018-04-13T08:41:10.269Z,13.30
2018-04-13T08:43:38.337Z,13.50
2018-04-13T08:46:06.927Z,13.60
2018-04-13T08:48:35.006Z,13.50
2018-04-13T08:51:03.058Z,13.60
2018-04-13T08:53:31.136Z,13.60
2018-04-13T08:56:00.628Z,13.50
2018-04-13T08:58:28.703Z,13.50
2018-04-13T09:00:56.831Z,13.50
2018-04-13T09:03:24.844Z,13.60
2018-04-13T09:05:52.929Z,13.50
2018-04-13T09:08:20.993Z,13.50
2018-04-13T09:10:49.065Z,13.50
2018-04-13T09:13:17.139Z,13.40
2018-04-13T09:15:45.215Z,13.40
2018-04-13T09:18:13.280Z,13.50
2018-04-13T09:20:41.427Z,13.30
2018-04-13T09:23:09.444Z,13.10
2018-04-13T09:25:37.507Z,13.10
2018-04-13T09:28:05.589Z,13.10
2018-04-13T09:30:33.667Z,13.00
2018-04-13T09:33:01.729Z,13.00
2018-04-13T09:35:29.813Z,13.00
2018-04-13T09:37:57.872Z,13.00
2018-04-13T09:40:25.943Z,13.00
2018-04-13T09:42:54.003Z,13.00
2018-04-13T09:45:22.071Z,13.00
2018-04-13T09:47:50.136Z,13.00
2018-04-13T09:50:18.224Z,13.00
2018-04-13T09:52:46.295Z,13.10
2018-04-13T09:55:14.378Z,13.10
2018-04-13T09:57:42.521Z,13.20
2018-04-13T10:00:10.595Z,13.10
2018-04-13T10:02:38.679Z,13.10
2018-04-13T10:05:12.464Z,13.10
2018-04-13T10:07:40.534Z,13.10
2018-04-13T10:10:08.607Z,13.20
2018-04-13T10:12:36.678Z,13.10
2018-04-13T10:15:04.754Z,13.10
2018-04-13T10:17:32.823Z,13.10
2018-04-13T10:20:00.891Z,13.10
2018-04-13T10:22:28.950Z,13.20
2018-04-13T10:24:57.011Z,13.20
2018-04-13T10:27:25.848Z,13.20
2018-04-13T10:29:53.916Z,13.20
2018-04-13T10:32:21.988Z,13.20
2018-04-13T10:34:50.068Z,13.20
2018-04-13T10:37:18.134Z,13.10
2018-04-13T10:39:46.204Z,13.00
2018-04-13T10:42:14.263Z,13.00
2018-04-13T10:44:43.851Z,13.00
2018-04-13T10:47:11.906Z,13.00
2018-04-13T10:49:40.012Z,12.90
2018-04-13T10:52:08.352Z,12.90
2018-04-13T10:54:36.416Z,12.80
2018-04-13T10:57:04.508Z,12.60
2018-04-13T10:59:32.550Z,12.60
2018-04-13T11:02:00.616Z,12.60
2018-04-13T11:04:29.441Z,12.40
2018-04-13T11:06:57.491Z,12.40
2018-04-13T11:09:26.463Z,12.30
2018-04-13T11:11:55.291Z,12.20
2018-04-13T11:14:23.397Z,12.10
2018-04-13T11:16:51.535Z,12.00
2018-04-13T11:19:19.535Z,11.90
2018-04-13T11:21:47.616Z,11.80
2018-04-13T11:24:15.689Z,11.70
2018-04-13T11:26:43.741Z,11.60
2018-04-13T11:29:11.795Z,11.60
2018-04-13T11:31:39.852Z,11.70
2018-04-13T11:34:08.702Z,11.50
2018-04-13T11:36:36.759Z,11.50
2018-04-13T11:39:05.544Z,11.50
2018-04-13T11:41:33.652Z,11.40
2018-04-13T11:44:01.689Z,11.20
2018-04-13T11:46:29.773Z,11.30
2018-04-13T11:48:58.642Z,11.20
2018-04-13T11:51:26.709Z,11.20
2018-04-13T11:53:54.755Z,11.20
2018-04-13T11:56:22.815Z,11.00
2018-04-13T11:58:51.634Z,11.10
2018-04-13T12:01:19.740Z,11.10
2018-04-13T12:03:47.812Z,11.10
2018-04-13T12:06:16.656Z,11.10
2018-04-13T12:08:44.706Z,11.10
2018-04-13T12:11:12.762Z,11.10
2018-04-13T12:13:40.819Z,11.00
2018-04-13T12:16:09.659Z,11.00
2018-04-13T12:18:37.708Z,11.00
2018-04-13T12:21:05.771Z,11.00
2018-04-13T12:23:33.823Z,11.00
2018-04-13T12:26:02.658Z,10.90
2018-04-13T12:28:30.712Z,10.90
2018-04-13T12:30:58.826Z,11.00
2018-04-13T12:33:26.884Z,11.10
2018-04-13T12:35:54.958Z,11.10
2018-04-13T12:38:23.066Z,11.20
2018-04-13T12:40:51.179Z,11.20
2018-04-13T12:43:19.251Z,11.30
2018-04-13T12:45:47.325Z,11.30
2018-04-13T12:48:15.396Z,11.50
2018-04-13T12:50:43.475Z,11.70
2018-04-13T12:53:11.555Z,11.90
2018-04-13T12:55:39.595Z,12.10
2018-04-13T12:58:08.420Z,12.40
2018-04-13T13:00:36.489Z,12.30
2018-04-13T13:03:04.564Z,12.50
2018-04-13T13:05:32.634Z,12.30
2018-04-13T13:08:00.708Z,12.00
2018-04-13T13:10:28.766Z,12.10
2018-04-13T13:12:56.843Z,12.10
2018-04-13T13:15:24.896Z,12.00
2018-04-13T13:17:52.959Z,12.00
2018-04-13T13:20:21.015Z,12.00
2018-04-13T13:22:49.081Z,12.00
2018-04-13T13:25:17.152Z,12.10
2018-04-13T13:27:45.215Z,12.20
2018-04-13T13:30:13.274Z,12.10
2018-04-13T13:32:43.420Z,12.40
2018-04-13T13:35:11.463Z,12.30
2018-04-13T13:37:40.283Z,12.30
2018-04-13T13:40:08.350Z,12.30
2018-04-13T13:42:36.406Z,12.40
2018-04-13T13:45:04.451Z,12.50
2018-04-13T13:47:32.512Z,12.30
2018-04-13T13:50:00.581Z,12.50
2018-04-13T13:52:28.631Z,12.80
2018-04-13T13:54:56.697Z,13.10
2018-04-13T13:57:24.762Z,13.50
2018-04-13T13:59:52.907Z,14.00
2018-04-13T14:02:20.945Z,14.40
2018-04-13T14:04:49.010Z,14.50
2018-04-13T14:07:17.199Z,14.40
2018-04-13T14:09:45.247Z,14.50
2018-04-13T14:12:13.302Z,14.80
2018-04-13T14:14:41.384Z,15.30
2018-04-13T14:17:09.415Z,15.00
2018-04-13T14:19:37.469Z,14.90
2018-04-13T14:22:05.527Z,14.70
2018-04-13T14:24:34.347Z,14.60
2018-04-13T14:27:02.435Z,14.60
2018-04-13T14:29:30.479Z,14.50
2018-04-13T14:31:58.541Z,14.30
2018-04-13T14:34:26.595Z,14.00
2018-04-13T14:36:55.412Z,13.80
2018-04-13T14:39:23.490Z,13.80
2018-04-13T14:41:51.541Z,14.10
2018-04-13T14:44:19.637Z,13.80
2018-04-13T14:46:47.695Z,13.70
2018-04-13T14:49:15.762Z,13.70
2018-04-13T14:51:43.820Z,13.70
2018-04-13T14:54:12.648Z,14.00
2018-04-13T14:56:40.711Z,14.00
2018-04-13T14:59:08.778Z,14.10
2018-04-13T15:01:36.832Z,14.00
2018-04-13T15:04:04.907Z,13.90
2018-04-13T15:06:32.991Z,13.90
2018-04-13T15:09:01.069Z,14.00
2018-04-13T15:11:29.120Z,14.20
2018-04-13T15:13:57.195Z,14.40
2018-04-13T15:16:25.248Z,14.50
2018-04-13T15:18:53.323Z,14.60
2018-04-13T15:21:21.394Z,14.60
2018-04-13T15:23:49.460Z,14.50
2018-04-13T15:26:17.532Z,14.50
2018-04-13T15:28:45.591Z,14.60
2018-04-13T15:31:14.416Z,14.40
2018-04-13T15:33:45.067Z,14.50
2018-04-13T15:36:13.209Z,14.50
2018-04-13T15:38:41.307Z,14.50
2018-04-13T15:41:09.472Z,14.60
2018-04-13T15:43:37.503Z,14.40
2018-04-13T15:46:05.609Z,14.00
2018-04-13T15:48:33.690Z,13.90
2018-04-13T15:51:01.807Z,14.10
2018-04-13T15:53:29.910Z,14.20
2018-04-13T15:55:58.157Z,14.30
2018-04-13T15:58:26.208Z,14.40
2018-04-13T16:00:54.300Z,14.30
2018-04-13T16:03:24.219Z,14.10
2018-04-13T16:05:52.275Z,14.00
2018-04-13T16:08:20.608Z,14.20
2018-04-13T16:10:48.811Z,14.10
2018-04-13T16:13:16.992Z,14.20
2018-04-13T16:15:46.849Z,14.30
2018-04-13T16:18:14.921Z,14.30
2018-04-13T16:20:42.984Z,14.30
2018-04-13T16:23:11.121Z,14.30
2018-04-13T16:25:39.187Z,14.40
2018-04-13T16:28:07.248Z,14.40
2018-04-13T16:30:35.312Z,14.30
2018-04-13T16:33:03.373Z,14.40
2018-04-13T16:35:31.436Z,14.40
2018-04-13T16:37:59.539Z,14.40
2018-04-13T16:40:27.721Z,14.20
2018-04-13T16:42:55.790Z,14.30
2018-04-13T16:45:23.887Z,14.20
2018-04-13T16:47:51.939Z,14.20
2018-04-13T16:50:20.007Z,14.10
2018-04-13T16:52:48.072Z,14.10
2018-04-13T16:55:16.139Z,14.00
2018-04-13T16:57:44.215Z,13.90
2018-04-13T17:00:12.338Z,13.90
2018-04-13T17:02:40.405Z,13.80
2018-04-13T17:05:08.476Z,13.80
2018-04-13T17:07:36.705Z,13.90
2018-04-13T17:10:04.826Z,13.90
2018-04-13T17:12:33.626Z,13.80
2018-04-13T17:15:01.698Z,13.80
2018-04-13T17:17:29.747Z,13.80
2018-04-13T17:19:57.838Z,13.60
2018-04-13T17:22:25.888Z,13.60
2018-04-13T17:24:53.964Z,13.50
2018-04-13T17:27:22.104Z,13.40
2018-04-13T17:29:50.178Z,13.40
2018-04-13T17:32:18.243Z,13.20
2018-04-13T17:34:46.316Z,13.10
2018-04-13T17:37:14.384Z,13.00
2018-04-13T17:39:42.443Z,13.00
2018-04-13T17:42:10.539Z,13.00
2018-04-13T17:44:38.625Z,12.80
2018-04-13T17:47:07.451Z,12.50
2018-04-13T17:49:35.529Z,12.50
2018-04-13T17:52:03.579Z,12.30
2018-04-13T17:54:31.643Z,12.10
2018-04-13T17:56:59.713Z,11.90
2018-04-13T17:59:27.775Z,11.70
2018-04-13T18:01:55.847Z,11.60
2018-04-13T18:04:23.919Z,11.50
2018-04-13T18:06:52.017Z,11.50
2018-04-13T18:09:20.093Z,11.60
2018-04-13T18:11:48.163Z,11.50
2018-04-13T18:14:16.232Z,11.40
2018-04-13T18:16:44.416Z,11.40
2018-04-13T18:19:12.455Z,11.30
2018-04-13T18:21:41.560Z,11.30
2018-04-13T18:24:16.883Z,11.30
2018-04-13T18:26:44.995Z,11.20
2018-04-13T18:29:13.119Z,11.10
2018-04-13T18:31:41.976Z,11.10
2018-04-13T18:34:10.023Z,11.10
2018-04-13T18:36:38.102Z,11.10
2018-04-13T18:39:06.158Z,11.10
2018-04-13T18:41:34.239Z,11.10
2018-04-13T18:44:02.645Z,11.10
2018-04-13T18:46:31.700Z,11.10
2018-04-13T18:48:59.761Z,11.10
2018-04-13T18:51:27.816Z,10.90
2018-04-13T18:53:55.880Z,10.90
2018-04-13T18:56:23.961Z,11.00
2018-04-13T18:58:52.030Z,11.00
2018-04-13T19:01:20.131Z,11.10
2018-04-13T19:03:48.233Z,11.10
2018-04-13T19:06:16.327Z,11.20
2018-04-13T19:08:45.183Z,11.40
2018-04-13T19:11:13.255Z,11.30
2018-04-13T19:13:41.345Z,11.40
2018-04-13T19:16:09.493Z,11.40
2018-04-13T19:18:38.271Z,11.50
2018-04-13T19:21:06.332Z,11.50
2018-04-13T19:23:34.616Z,11.40
2018-04-13T19:26:03.497Z,11.40
2018-04-13T19:28:31.510Z,11.30
2018-04-13T19:30:59.573Z,11.30
2018-04-13T19:33:27.688Z,11.10
2018-04-13T19:35:56.433Z,10.90
2018-04-13T19:38:25.383Z,10.90
2018-04-13T19:40:53.457Z,11.00
2018-04-13T19:43:21.697Z,11.00
2018-04-13T19:45:50.540Z,11.00
2018-04-13T19:48:18.594Z,11.00
2018-04-13T19:50:46.661Z,11.00
2018-04-13T19:53:14.728Z,11.00
2018-04-13T19:55:42.783Z,11.00
2018-04-13T19:58:10.878Z,10.90
2018-04-13T20:00:39.466Z,10.80
2018-04-13T20:03:07.499Z,10.80
2018-04-13T20:05:35.690Z,10.70
2018-04-13T20:08:03.752Z,10.60
2018-04-13T20:10:31.836Z,10.60
2018-04-13T20:12:59.884Z,10.60
2018-04-13T20:15:27.955Z,10.60
2018-04-13T20:17:56.012Z,10.60
2018-04-13T20:20:24.843Z,10.50
2018-04-13T20:22:54.839Z,10.50
2018-04-13T20:25:22.915Z,10.50
2018-04-13T20:27:50.990Z,10.60
2018-04-13T20:30:19.059Z,10.70
2018-04-13T20:32:47.143Z,10.70
2018-04-13T20:35:15.198Z,10.70
2018-04-13T20:37:43.262Z,10.80
2018-04-13T20:40:11.307Z,10.70
2018-04-13T20:42:39.478Z,10.50
2018-04-13T20:45:07.525Z,10.40
2018-04-13T20:47:35.596Z,10.40
2018-04-13T20:50:03.649Z,10.50
2018-04-13T20:52:32.703Z,10.50
2018-04-13T20:55:01.537Z,10.50
2018-04-13T20:57:29.591Z,10.50
2018-04-13T20:59:57.653Z,10.40
2018-04-13T21:02:25.702Z,10.40
2018-04-13T21:04:54.519Z,10.30
2018-04-13T21:07:22.724Z,10.30
2018-04-13T21:09:50.784Z,10.30
2018-04-13T21:12:18.856Z,10.20
2018-04-13T21:14:46.903Z,10.30
2018-04-13T21:17:14.970Z,10.20
2018-04-13T21:19:43.020Z,10.10
2018-04-13T21:22:11.854Z,10.10
2018-04-13T21:24:40.580Z,10.10
2018-04-13T21:27:08.649Z,10.00
2018-04-13T21:29:36.703Z,10.00
2018-04-13T21:32:05.872Z,10.00
2018-04-13T21:34:33.923Z,9.90
2018-04-13T21:37:01.985Z,9.90
2018-04-13T21:39:30.037Z,9.90
2018-04-13T21:41:58.861Z,9.80
2018-04-13T21:44:27.039Z,9.70
2018-04-13T21:46:55.238Z,9.80
2018-04-13T21:49:23.292Z,9.70
2018-04-13T21:51:51.357Z,9.60
2018-04-13T21:54:19.400Z,9.60
2018-04-13T21:56:47.467Z,9.50
2018-04-13T21:59:16.302Z,9.50
2018-04-13T22:01:44.418Z,9.50
2018-04-13T22:04:12.416Z,9.50
2018-04-13T22:06:40.485Z,9.40
2018-04-13T22:09:08.556Z,9.40
2018-04-13T22:11:36.633Z,9.40
2018-04-13T22:14:16.456Z,9.30
2018-04-13T22:16:44.519Z,9.30
2018-04-13T22:19:13.359Z,9.30
2018-04-13T22:21:41.432Z,9.30
2018-04-13T22:24:09.487Z,9.30
2018-04-13T22:26:37.558Z,9.30
2018-04-13T22:29:05.640Z,9.30
2018-04-13T22:31:33.683Z,9.30
2018-04-13T22:34:01.736Z,9.20
2018-04-13T22:36:29.800Z,9.30
2018-04-13T22:38:58.729Z,9.20
2018-04-13T22:41:26.801Z,9.20
2018-04-13T22:43:54.874Z,9.20
2018-04-13T22:46:22.939Z,9.10
2018-04-13T22:48:51.012Z,9.10
2018-04-13T22:51:19.261Z,9.10
2018-04-13T22:53:48.093Z,9.40
2018-04-13T22:56:16.154Z,9.40
2018-04-13T22:58:44.210Z,9.50
2018-04-13T23:01:12.276Z,9.60
2018-04-13T23:03:40.356Z,9.70
2018-04-13T23:06:08.424Z,9.70
2018-04-13T23:08:36.547Z,9.70
2018-04-13T23:11:04.615Z,9.80
2018-04-13T23:13:32.685Z,9.80
2018-04-13T23:16:00.731Z,9.90
2018-04-13T23:18:28.911Z,9.90
2018-04-13T23:20:56.962Z,9.80
2018-04-13T23:23:25.027Z,9.80
2018-04-13T23:25:53.088Z,9.90
2018-04-13T23:28:21.165Z,9.90
2018-04-13T23:30:49.236Z,9.90
2018-04-13T23:33:17.299Z,9.90
2018-04-13T23:35:45.359Z,10.00
2018-04-13T23:38:14.197Z,9.90
2018-04-13T23:40:42.260Z,9.90
2018-04-13T23:43:10.334Z,9.90
2018-04-13T23:45:38.394Z,9.80
2018-04-13T23:48:06.459Z,9.70
2018-04-13T23:50:34.532Z,9.60
2018-04-13T23:53:02.612Z,9.60
2018-04-13T23:55:30.685Z,9.60
2018-04-13T23:57:58.743Z,9.50
